createdAt,value
2022-10-14T00:02:59.620Z,6.70
2022-10-14T00:13:01.886Z,6.70
2022-10-14T00:23:04.617Z,6.53
2022-10-14T00:33:07.033Z,6.70
2022-10-14T00:43:14.480Z,6.85
2022-10-14T00:53:18.074Z,5.95
2022-10-14T01:03:23.067Z,6.17
2022-10-14T01:13:50.585Z,6.35
2022-10-14T01:24:19.557Z,5.47
2022-10-14T01:34:30.964Z,6.30
2022-10-14T01:44:35.732Z,6.12
2022-10-14T01:54:41.516Z,6.10
2022-10-14T02:04:43.722Z,6.45
2022-10-14T02:14:48.727Z,5.78
2022-10-14T02:24:58.837Z,6.10
2022-10-14T02:35:02.991Z,6.85
2022-10-14T02:45:07.243Z,6.62
2022-10-14T02:55:09.564Z,6.57
2022-10-14T03:05:12.221Z,7.20
2022-10-14T03:15:14.663Z,6.70
2022-10-14T03:25:16.937Z,6.93
2022-10-14T03:35:19.461Z,7.10
2022-10-14T03:45:22.000Z,6.22
2022-10-14T03:55:24.544Z,6.07
2022-10-14T04:05:26.789Z,6.30
2022-10-14T04:15:29.126Z,6.10
2022-10-14T04:25:31.449Z,6.80
2022-10-14T04:35:33.840Z,5.72
2022-10-14T04:45:36.075Z,6.25
2022-10-14T04:55:38.312Z,5.72
2022-10-14T05:05:40.617Z,6.20
2022-10-14T05:15:43.056Z,5.75
2022-10-14T05:25:45.575Z,5.32
2022-10-14T05:35:58.650Z,5.43
2022-10-14T05:46:02.583Z,5.10
2022-10-14T05:56:09.762Z,5.07
2022-10-14T06:06:17.007Z,6.78
2022-10-14T06:16:19.413Z,5.85
2022-10-14T06:26:21.819Z,7.10
2022-10-14T06:36:24.374Z,6.28
2022-10-14T06:46:26.989Z,6.90
2022-10-14T06:56:29.483Z,7.53
2022-10-14T07:06:32.462Z,7.65
2022-10-14T07:16:34.913Z,7.18
2022-10-14T07:26:37.261Z,6.68
2022-10-14T07:36:39.897Z,6.85
2022-10-14T07:46:45.189Z,6.18
2022-10-14T07:56:51.762Z,5.47
2022-10-14T08:06:54.302Z,4.95
2022-10-14T08:16:57.034Z,5.70
2022-10-14T08:27:01.473Z,5.80
2022-10-14T08:37:04.221Z,6.57
2022-10-14T08:47:14.560Z,5.65
2022-10-14T08:57:23.518Z,4.65
2022-10-14T09:07:28.566Z,5.37
2022-10-14T09:17:43.844Z,4.80
2022-10-14T09:37:54.747Z,5.85
2022-10-14T09:48:09.991Z,5.40
2022-10-14T09:58:18.941Z,6.35
2022-10-14T10:08:21.833Z,7.97
2022-10-14T10:18:25.507Z,8.20
2022-10-14T10:28:34.067Z,7.55
2022-10-14T10:38:52.523Z,5.85
2022-10-14T10:49:24.847Z,5.78
2022-10-14T10:59:30.875Z,4.20
2022-10-14T11:10:11.720Z,4.85
2022-10-14T11:20:38.286Z,5.78
2022-10-14T11:31:18.286Z,6.10
2022-10-14T11:42:03.589Z,5.20
2022-10-14T11:52:17.741Z,4.87
2022-10-14T12:02:51.325Z,5.07
2022-10-14T12:12:56.383Z,5.28
2022-10-14T12:23:00.999Z,4.07
2022-10-14T12:33:12.917Z,3.75
2022-10-14T12:43:30.011Z,3.10
2022-10-14T12:53:34.293Z,2.80
2022-10-14T13:03:53.584Z,2.78
2022-10-14T13:14:01.440Z,1.90
2022-10-14T13:24:23.221Z,1.05
2022-10-14T13:34:44.661Z,0.60
2022-10-14T13:44:49.494Z,0.20
2022-10-14T13:55:14.492Z,0.10
2022-10-14T14:05:19.870Z,0.17
2022-10-14T14:15:29.527Z,0.10
2022-10-14T14:25:34.418Z,0.30
2022-10-14T14:35:38.643Z,0.15
2022-10-14T14:45:46.939Z,0.13
2022-10-14T14:55:55.181Z,0.13
2022-10-14T15:06:00.804Z,0.10
2022-10-14T15:16:07.817Z,0.20
2022-10-14T15:26:33.827Z,0.20
2022-10-14T15:36:36.663Z,0.10
2022-10-14T15:46:59.275Z,0.30
2022-10-14T15:57:02.018Z,0.28
2022-10-14T16:07:04.622Z,0.32
2022-10-14T16:17:09.174Z,0.80
2022-10-14T16:27:12.107Z,0.70
2022-10-14T16:37:15.011Z,0.93
2022-10-14T16:47:18.089Z,0.98
2022-10-14T16:57:21.503Z,1.20
2022-10-14T17:07:24.131Z,1.10
2022-10-14T17:17:27.569Z,1.10
2022-10-14T17:27:30.163Z,1.07
2022-10-14T17:37:32.826Z,1.20
2022-10-14T17:47:35.465Z,1.17
2022-10-14T17:57:38.155Z,1.10
2022-10-14T18:07:41.275Z,1.23
2022-10-14T18:17:44.009Z,1.05
2022-10-14T18:27:47.293Z,1.40
2022-10-14T18:37:49.812Z,1.10
2022-10-14T18:47:53.312Z,0.80
2022-10-14T18:57:56.431Z,1.50
2022-10-14T19:08:00.652Z,1.20
2022-10-14T19:18:03.270Z,1.10
2022-10-14T19:28:05.788Z,0.88
2022-10-14T19:38:08.428Z,0.75
2022-10-14T19:48:11.197Z,0.95
2022-10-14T19:58:13.991Z,0.80
2022-10-14T20:08:17.181Z,0.65
2022-10-14T20:18:19.788Z,0.62
2022-10-14T20:28:22.518Z,0.47
2022-10-14T20:38:25.139Z,0.17
2022-10-14T20:48:28.069Z,0.13
2022-10-14T20:58:31.070Z,0.10
2022-10-14T21:08:33.846Z,0.00
2022-10-14T21:18:36.851Z,0.30
2022-10-14T21:28:39.482Z,0.10
2022-10-14T21:38:42.667Z,0.00
2022-10-14T21:48:45.795Z,0.30
2022-10-14T21:58:48.356Z,0.10
2022-10-14T22:08:52.737Z,0.50
2022-10-14T22:29:06.171Z,0.17
2022-10-14T22:39:13.439Z,0.13
2022-10-14T22:49:16.444Z,0.20
2022-10-14T22:59:19.128Z,0.10
2022-10-14T23:09:21.541Z,0.10
2022-10-14T23:19:23.904Z,0.10
2022-10-14T23:29:26.252Z,0.00
2022-10-14T23:39:28.693Z,0.15
2022-10-14T23:49:31.127Z,0.15
2022-10-14T23:59:33.453Z,0.17
